sensor_id;sensor_type;location;lat;lon;timestamp;pressure;altitude;pressure_sealevel;temperature;humidity
2188;BME280;1100;52.014;8.540;2022-12-05T00:00:12;100286.19;;;0.21;90.46
2188;BME280;1100;52.014;8.540;2022-12-05T00:02:37;100294.84;;;0.23;90.59
2188;BME280;1100;52.014;8.540;2022-12-05T00:05:03;100298.00;;;0.25;90.46
2188;BME280;1100;52.014;8.540;2022-12-05T00:07:28;100293.31;;;0.26;90.45
2188;BME280;1100;52.014;8.540;2022-12-05T00:09:54;100299.22;;;0.28;90.56
2188;BME280;1100;52.014;8.540;2022-12-05T00:12:19;100298.78;;;0.26;90.20
2188;BME280;1100;52.014;8.540;2022-12-05T00:14:44;100297.28;;;0.28;90.67
2188;BME280;1100;52.014;8.540;2022-12-05T00:17:10;100299.66;;;0.30;90.32
2188;BME280;1100;52.014;8.540;2022-12-05T00:19:35;100293.81;;;0.31;90.30
2188;BME280;1100;52.014;8.540;2022-12-05T00:22:00;100293.81;;;0.31;90.40
2188;BME280;1100;52.014;8.540;2022-12-05T00:24:26;100302.38;;;0.30;90.17
2188;BME280;1100;52.014;8.540;2022-12-05T00:26:51;100303.97;;;0.31;90.45
2188;BME280;1100;52.014;8.540;2022-12-05T00:29:17;100288.72;;;0.30;90.12
2188;BME280;1100;52.014;8.540;2022-12-05T00:31:42;100291.44;;;0.30;90.54
2188;BME280;1100;52.014;8.540;2022-12-05T00:34:08;100302.78;;;0.32;90.40
2188;BME280;1100;52.014;8.540;2022-12-05T00:36:34;100294.97;;;0.30;90.52
2188;BME280;1100;52.014;8.540;2022-12-05T00:39:04;100291.84;;;0.32;90.49
2188;BME280;1100;52.014;8.540;2022-12-05T00:41:30;100293.38;;;0.29;90.34
2188;BME280;1100;52.014;8.540;2022-12-05T00:43:58;100285.84;;;0.22;90.18
2188;BME280;1100;52.014;8.540;2022-12-05T00:46:26;100285.84;;;0.22;90.55
2188;BME280;1100;52.014;8.540;2022-12-05T00:48:52;100290.56;;;0.26;90.41
2188;BME280;1100;52.014;8.540;2022-12-05T00:51:20;100283.53;;;0.24;90.32
2188;BME280;1100;52.014;8.540;2022-12-05T00:53:47;100282.75;;;0.24;90.38
2188;BME280;1100;52.014;8.540;2022-12-05T00:56:15;100282.38;;;0.26;90.45
2188;BME280;1100;52.014;8.540;2022-12-05T00:58:41;100274.53;;;0.24;90.23
2188;BME280;1100;52.014;8.540;2022-12-05T01:03:47;100271.41;;;0.22;90.21
2188;BME280;1100;52.014;8.540;2022-12-05T01:06:13;100269.44;;;0.22;90.59
2188;BME280;1100;52.014;8.540;2022-12-05T01:08:40;100271.03;;;0.23;90.37
2188;BME280;1100;52.014;8.540;2022-12-05T01:11:06;100271.81;;;0.24;90.26
2188;BME280;1100;52.014;8.540;2022-12-05T01:13:33;100264.75;;;0.23;90.48
2188;BME280;1100;52.014;8.540;2022-12-05T01:15:58;100275.25;;;0.21;90.17
2188;BME280;1100;52.014;8.540;2022-12-05T01:18:25;100267.84;;;0.21;90.58
2188;BME280;1100;52.014;8.540;2022-12-05T01:20:51;100270.66;;;0.25;90.50
2188;BME280;1100;52.014;8.540;2022-12-05T01:23:16;100277.34;;;0.28;90.43
2188;BME280;1100;52.014;8.540;2022-12-05T01:25:44;100270.34;;;0.30;90.36
2188;BME280;1100;52.014;8.540;2022-12-05T01:28:10;100278.19;;;0.32;90.25
2188;BME280;1100;52.014;8.540;2022-12-05T01:30:39;100281.66;;;0.29;90.36
2188;BME280;1100;52.014;8.540;2022-12-05T01:33:06;100284.75;;;0.27;90.38
2188;BME280;1100;52.014;8.540;2022-12-05T01:35:33;100278.50;;;0.27;90.40
2188;BME280;1100;52.014;8.540;2022-12-05T01:37:58;100282.75;;;0.24;90.55
2188;BME280;1100;52.014;8.540;2022-12-05T01:40:24;100280.38;;;0.22;90.54
2188;BME280;1100;52.014;8.540;2022-12-05T01:42:49;100283.91;;;0.23;90.31
2188;BME280;1100;52.014;8.540;2022-12-05T01:45:17;100286.63;;;0.23;90.33
2188;BME280;1100;52.014;8.540;2022-12-05T01:47:46;100274.13;;;0.22;90.38
2188;BME280;1100;52.014;8.540;2022-12-05T01:50:12;100275.78;;;0.27;90.68
2188;BME280;1100;52.014;8.540;2022-12-05T01:52:38;100281.16;;;0.23;90.49
2188;BME280;1100;52.014;8.540;2022-12-05T01:55:11;100276.88;;;0.22;90.51
2188;BME280;1100;52.014;8.540;2022-12-05T01:57:37;100273.41;;;0.25;90.41
2188;BME280;1100;52.014;8.540;2022-12-05T02:00:09;100282.00;;;0.27;90.62
2188;BME280;1100;52.014;8.540;2022-12-05T02:02:35;100274.97;;;0.26;90.30
2188;BME280;1100;52.014;8.540;2022-12-05T02:05:04;100273.03;;;0.27;90.55
2188;BME280;1100;52.014;8.540;2022-12-05T02:07:32;100280.88;;;0.28;90.39
2188;BME280;1100;52.014;8.540;2022-12-05T02:09:57;100283.25;;;0.30;90.66
2188;BME280;1100;52.014;8.540;2022-12-05T02:12:23;100277.78;;;0.30;90.36
2188;BME280;1100;52.014;8.540;2022-12-05T02:14:58;100285.19;;;0.29;90.66
2188;BME280;1100;52.014;8.540;2022-12-05T02:20:25;100273.09;;;0.30;90.64
2188;BME280;1100;52.014;8.540;2022-12-05T02:31:47;100279.78;;;0.33;90.39
2188;BME280;1100;52.014;8.540;2022-12-05T02:34:21;100279.34;;;0.31;90.39
2188;BME280;1100;52.014;8.540;2022-12-05T02:36:59;100275.81;;;0.30;90.54
2188;BME280;1100;52.014;8.540;2022-12-05T02:39:50;100280.16;;;0.31;90.68
2188;BME280;1100;52.014;8.540;2022-12-05T02:42:28;100277.41;;;0.31;90.47
2188;BME280;1100;52.014;8.540;2022-12-05T02:45:05;100277.41;;;0.31;90.64
2188;BME280;1100;52.014;8.540;2022-12-05T02:47:38;100271.59;;;0.33;90.76
2188;BME280;1100;52.014;8.540;2022-12-05T02:50:08;100277.06;;;0.33;90.38
2188;BME280;1100;52.014;8.540;2022-12-05T02:52:35;100260.22;;;0.31;90.42
2188;BME280;1100;52.014;8.540;2022-12-05T02:55:02;100268.78;;;0.29;90.46
2188;BME280;1100;52.014;8.540;2022-12-05T02:57:28;100270.34;;;0.30;90.53
2188;BME280;1100;52.014;8.540;2022-12-05T02:59:53;100276.69;;;0.34;90.52
2188;BME280;1100;52.014;8.540;2022-12-05T03:02:25;100276.69;;;0.34;90.57
2188;BME280;1100;52.014;8.540;2022-12-05T03:04:51;100278.19;;;0.32;90.54
2188;BME280;1100;52.014;8.540;2022-12-05T03:07:18;100279.00;;;0.32;90.30
2188;BME280;1100;52.014;8.540;2022-12-05T03:09:50;100277.81;;;0.33;90.62
2188;BME280;1100;52.014;8.540;2022-12-05T03:12:24;100277.06;;;0.33;90.66
2188;BME280;1100;52.014;8.540;2022-12-05T03:14:56;100277.06;;;0.33;90.52
2188;BME280;1100;52.014;8.540;2022-12-05T03:17:29;100278.56;;;0.30;90.35
2188;BME280;1100;52.014;8.540;2022-12-05T03:20:02;100272.31;;;0.30;90.58
2188;BME280;1100;52.014;8.540;2022-12-05T03:22:45;100273.09;;;0.30;90.30
2188;BME280;1100;52.014;8.540;2022-12-05T03:25:12;100269.94;;;0.28;90.33
2188;BME280;1100;52.014;8.540;2022-12-05T03:27:46;100273.44;;;0.29;90.43
2188;BME280;1100;52.014;8.540;2022-12-05T03:30:20;100269.94;;;0.28;90.50
2188;BME280;1100;52.014;8.540;2022-12-05T03:38:13;100261.78;;;0.32;90.46
2188;BME280;1100;52.014;8.540;2022-12-05T03:40:48;100276.63;;;0.31;90.45
2188;BME280;1100;52.014;8.540;2022-12-05T03:45:59;100270.31;;;0.27;90.73
2188;BME280;1100;52.014;8.540;2022-12-05T03:48:34;100271.50;;;0.29;90.61
2188;BME280;1100;52.014;8.540;2022-12-05T03:51:05;100273.09;;;0.30;90.50
2188;BME280;1100;52.014;8.540;2022-12-05T03:53:35;100274.31;;;0.33;90.75
2188;BME280;1100;52.014;8.540;2022-12-05T03:56:06;100275.09;;;0.33;90.47
2188;BME280;1100;52.014;8.540;2022-12-05T03:58:48;100272.34;;;0.33;90.32
2188;BME280;1100;52.014;8.540;2022-12-05T04:01:17;100276.25;;;0.32;90.71
2188;BME280;1100;52.014;8.540;2022-12-05T04:03:52;100278.19;;;0.32;90.42
2188;BME280;1100;52.014;8.540;2022-12-05T04:06:29;100270.78;;;0.32;90.48
2188;BME280;1100;52.014;8.540;2022-12-05T04:09:03;100267.31;;;0.35;90.63
2188;BME280;1100;52.014;8.540;2022-12-05T04:11:33;100271.25;;;0.38;90.35
2188;BME280;1100;52.014;8.540;2022-12-05T04:14:10;100265.75;;;0.34;90.65
2188;BME280;1100;52.014;8.540;2022-12-05T04:16:41;100268.41;;;0.31;90.60
2188;BME280;1100;52.014;8.540;2022-12-05T04:22:14;100273.50;;;0.32;90.50
2188;BME280;1100;52.014;8.540;2022-12-05T04:24:39;100269.97;;;0.32;90.49
2188;BME280;1100;52.014;8.540;2022-12-05T04:30:25;100268.03;;;0.32;90.79
2188;BME280;1100;52.014;8.540;2022-12-05T04:33:01;100273.94;;;0.34;90.86
2188;BME280;1100;52.014;8.540;2022-12-05T04:35:33;100275.16;;;0.37;90.71
2188;BME280;1100;52.014;8.540;2022-12-05T04:38:11;100273.59;;;0.36;90.60
2188;BME280;1100;52.014;8.540;2022-12-05T04:40:53;100273.63;;;0.40;90.73
2188;BME280;1100;52.014;8.540;2022-12-05T04:43:20;100269.41;;;0.42;90.51
2188;BME280;1100;52.014;8.540;2022-12-05T04:45:49;100265.84;;;0.42;90.67
2188;BME280;1100;52.014;8.540;2022-12-05T04:48:16;100274.91;;;0.46;90.84
2188;BME280;1100;52.014;8.540;2022-12-05T04:50:44;100272.59;;;0.48;90.86
2188;BME280;1100;52.014;8.540;2022-12-05T04:53:11;100258.13;;;0.47;90.58
2188;BME280;1100;52.014;8.540;2022-12-05T04:55:40;100270.59;;;0.45;90.71
2188;BME280;1100;52.014;8.540;2022-12-05T04:58:14;100273.78;;;0.47;91.01
2188;BME280;1100;52.014;8.540;2022-12-05T05:01:01;100276.50;;;0.47;90.78
2188;BME280;1100;52.014;8.540;2022-12-05T05:03:35;100270.22;;;0.46;90.83
2188;BME280;1100;52.014;8.540;2022-12-05T05:06:02;100269.88;;;0.48;90.77
2188;BME280;1100;52.014;8.540;2022-12-05T05:08:28;100262.09;;;0.50;90.80
2188;BME280;1100;52.014;8.540;2022-12-05T05:11:03;100261.72;;;0.52;90.62
2188;BME280;1100;52.014;8.540;2022-12-05T05:13:30;100270.66;;;0.48;90.80
2188;BME280;1100;52.014;8.540;2022-12-05T05:15:55;100264.84;;;0.50;90.54
2188;BME280;1100;52.014;8.540;2022-12-05T05:18:21;100258.19;;;0.51;90.65
2188;BME280;1100;52.014;8.540;2022-12-05T05:20:46;100269.97;;;0.55;90.68
2188;BME280;1100;52.014;8.540;2022-12-05T05:23:11;100262.19;;;0.57;91.05
2188;BME280;1100;52.014;8.540;2022-12-05T05:25:37;100262.19;;;0.57;90.64
2188;BME280;1100;52.014;8.540;2022-12-05T05:28:03;100266.09;;;0.56;90.87
2188;BME280;1100;52.014;8.540;2022-12-05T05:30:28;100273.50;;;0.56;90.61
2188;BME280;1100;52.014;8.540;2022-12-05T05:32:53;100269.97;;;0.55;90.59
2188;BME280;1100;52.014;8.540;2022-12-05T05:35:19;100273.09;;;0.54;90.97
2188;BME280;1100;52.014;8.540;2022-12-05T05:37:45;100279.34;;;0.54;90.88
2188;BME280;1100;52.014;8.540;2022-12-05T05:40:12;100280.50;;;0.53;90.88
2188;BME280;1100;52.014;8.540;2022-12-05T05:42:42;100276.97;;;0.53;90.74
2188;BME280;1100;52.014;8.540;2022-12-05T05:45:08;100280.16;;;0.55;90.84
2188;BME280;1100;52.014;8.540;2022-12-05T05:47:33;100278.19;;;0.55;90.77
2188;BME280;1100;52.014;8.540;2022-12-05T05:50:00;100280.16;;;0.55;90.82
2188;BME280;1100;52.014;8.540;2022-12-05T05:52:25;100290.28;;;0.54;90.95
2188;BME280;1100;52.014;8.540;2022-12-05T05:54:50;100285.97;;;0.53;90.62
2188;BME280;1100;52.014;8.540;2022-12-05T05:57:16;100283.66;;;0.55;90.61
2188;BME280;1100;52.014;8.540;2022-12-05T05:59:41;100284.81;;;0.54;90.62
2188;BME280;1100;52.014;8.540;2022-12-05T06:02:06;100287.91;;;0.53;90.67
2188;BME280;1100;52.014;8.540;2022-12-05T06:04:33;100289.44;;;0.50;91.08
2188;BME280;1100;52.014;8.540;2022-12-05T06:06:59;100291.03;;;0.51;90.69
2188;BME280;1100;52.014;8.540;2022-12-05T06:09:25;100302.41;;;0.53;91.05
2188;BME280;1100;52.014;8.540;2022-12-05T06:11:50;100294.59;;;0.55;90.91
2188;BME280;1100;52.014;8.540;2022-12-05T06:14:15;100295.47;;;0.59;91.05
2188;BME280;1100;52.014;8.540;2022-12-05T06:16:41;100298.97;;;0.60;90.77
2188;BME280;1100;52.014;8.540;2022-12-05T06:19:06;100297.47;;;0.63;91.10
2188;BME280;1100;52.014;8.540;2022-12-05T06:21:31;100303.00;;;0.66;90.79
2188;BME280;1100;52.014;8.540;2022-12-05T06:23:57;100296.31;;;0.64;91.11
2188;BME280;1100;52.014;8.540;2022-12-05T06:26:22;100301.41;;;0.65;90.94
2188;BME280;1100;52.014;8.540;2022-12-05T06:28:48;100306.09;;;0.65;90.88
2188;BME280;1100;52.014;8.540;2022-12-05T06:31:16;100301.41;;;0.65;90.95
2188;BME280;1100;52.014;8.540;2022-12-05T06:33:42;100303.78;;;0.67;90.69
2188;BME280;1100;52.014;8.540;2022-12-05T06:36:10;100308.91;;;0.68;91.10
2188;BME280;1100;52.014;8.540;2022-12-05T06:38:36;100310.09;;;0.71;90.93
2188;BME280;1100;52.014;8.540;2022-12-05T06:41:06;100309.69;;;0.69;90.79
2188;BME280;1100;52.014;8.540;2022-12-05T06:43:32;100308.53;;;0.70;90.91
2188;BME280;1100;52.014;8.540;2022-12-05T06:45:57;100305.72;;;0.66;90.79
2188;BME280;1100;52.014;8.540;2022-12-05T06:48:23;100312.84;;;0.71;90.83
2188;BME280;1100;52.014;8.540;2022-12-05T06:50:49;100317.91;;;0.69;90.66
2188;BME280;1100;52.014;8.540;2022-12-05T06:53:15;100315.91;;;0.66;90.80
2188;BME280;1100;52.014;8.540;2022-12-05T06:55:40;100313.09;;;0.62;90.71
2188;BME280;1100;52.014;8.540;2022-12-05T06:58:06;100322.81;;;0.59;90.92
2188;BME280;1100;52.014;8.540;2022-12-05T07:00:31;100322.47;;;0.61;90.57
2188;BME280;1100;52.014;8.540;2022-12-05T07:03:15;100317.66;;;0.54;90.67
2188;BME280;1100;52.014;8.540;2022-12-05T07:05:41;100323.84;;;0.51;90.78
2188;BME280;1100;52.014;8.540;2022-12-05T07:08:06;100320.69;;;0.49;90.74
2188;BME280;1100;52.014;8.540;2022-12-05T07:10:31;100318.31;;;0.47;90.75
2188;BME280;1100;52.014;8.540;2022-12-05T07:12:57;100326.47;;;0.44;90.81
2188;BME280;1100;52.014;8.540;2022-12-05T07:15:22;100324.50;;;0.44;90.72
2188;BME280;1100;52.014;8.540;2022-12-05T07:17:48;100329.59;;;0.46;90.87
2188;BME280;1100;52.014;8.540;2022-12-05T07:20:13;100331.56;;;0.45;90.97
2188;BME280;1100;52.014;8.540;2022-12-05T07:22:42;100326.88;;;0.46;91.05
2188;BME280;1100;52.014;8.540;2022-12-05T07:25:08;100331.56;;;0.45;90.83
2188;BME280;1100;52.014;8.540;2022-12-05T07:27:33;100330.34;;;0.43;90.75
2188;BME280;1100;52.014;8.540;2022-12-05T07:29:59;100334.31;;;0.45;90.96
2188;BME280;1100;52.014;8.540;2022-12-05T07:32:24;100339.34;;;0.43;90.55
2188;BME280;1100;52.014;8.540;2022-12-05T07:34:50;100337.25;;;0.36;90.63
2188;BME280;1100;52.014;8.540;2022-12-05T07:37:15;100336.84;;;0.34;90.57
2188;BME280;1100;52.014;8.540;2022-12-05T07:39:40;100335.22;;;0.30;90.55
2188;BME280;1100;52.014;8.540;2022-12-05T07:42:05;100337.50;;;0.28;90.66
2188;BME280;1100;52.014;8.540;2022-12-05T07:44:31;100340.59;;;0.26;90.71
2188;BME280;1100;52.014;8.540;2022-12-05T07:46:57;100333.03;;;0.19;90.35
2188;BME280;1100;52.014;8.540;2022-12-05T07:49:22;100341.13;;;0.12;90.55
2188;BME280;1100;52.014;8.540;2022-12-05T07:51:51;100341.41;;;0.07;90.26
2188;BME280;1100;52.014;8.540;2022-12-05T07:54:17;100341.63;;;-0.02;90.52
2188;BME280;1100;52.014;8.540;2022-12-05T07:56:42;100341.09;;;-0.08;90.39
2188;BME280;1100;52.014;8.540;2022-12-05T07:59:07;100341.78;;;-0.15;90.53
2188;BME280;1100;52.014;8.540;2022-12-05T08:01:32;100342.41;;;-0.21;90.41
2188;BME280;1100;52.014;8.540;2022-12-05T08:03:58;100339.22;;;-0.23;90.39
2188;BME280;1100;52.014;8.540;2022-12-05T08:06:26;100345.06;;;-0.25;90.37
2188;BME280;1100;52.014;8.540;2022-12-05T08:08:53;100353.25;;;-0.25;90.46
2188;BME280;1100;52.014;8.540;2022-12-05T08:11:26;100346.94;;;-0.29;90.39
2188;BME280;1100;52.014;8.540;2022-12-05T08:13:52;100354.63;;;-0.35;90.31
2188;BME280;1100;52.014;8.540;2022-12-05T08:16:21;100342.47;;;-0.38;90.48
2188;BME280;1100;52.014;8.540;2022-12-05T08:18:47;100346.34;;;-0.39;90.34
2188;BME280;1100;52.014;8.540;2022-12-05T08:21:18;100348.63;;;-0.41;90.37
2188;BME280;1100;52.014;8.540;2022-12-05T08:23:44;100351.00;;;-0.39;90.55
2188;BME280;1100;52.014;8.540;2022-12-05T08:26:15;100349.06;;;-0.39;90.43
2188;BME280;1100;52.014;8.540;2022-12-05T08:28:42;100356.13;;;-0.38;90.29
2188;BME280;1100;52.014;8.540;2022-12-05T08:31:13;100351.81;;;-0.39;90.44
2188;BME280;1100;52.014;8.540;2022-12-05T08:33:39;100356.84;;;-0.41;90.49
2188;BME280;1100;52.014;8.540;2022-12-05T08:36:07;100365.81;;;-0.40;90.43
2188;BME280;1100;52.014;8.540;2022-12-05T08:38:33;100359.91;;;-0.42;90.36
2188;BME280;1100;52.014;8.540;2022-12-05T08:41:00;100378.69;;;-0.41;90.31
2188;BME280;1100;52.014;8.540;2022-12-05T08:43:27;100364.66;;;-0.39;90.57
2188;BME280;1100;52.014;8.540;2022-12-05T08:45:53;100364.97;;;-0.44;90.49
2188;BME280;1100;52.014;8.540;2022-12-05T08:48:18;100366.44;;;-0.47;90.48
2188;BME280;1100;52.014;8.540;2022-12-05T08:50:44;100364.44;;;-0.50;90.38
2188;BME280;1100;52.014;8.540;2022-12-05T08:53:09;100367.63;;;-0.48;90.44
2188;BME280;1100;52.014;8.540;2022-12-05T08:55:35;100361.34;;;-0.48;90.63
2188;BME280;1100;52.014;8.540;2022-12-05T08:58:00;100368.06;;;-0.46;90.44
2188;BME280;1100;52.014;8.540;2022-12-05T09:00:25;100369.19;;;-0.47;90.07
2188;BME280;1100;52.014;8.540;2022-12-05T09:02:51;100365.69;;;-0.47;90.39
2188;BME280;1100;52.014;8.540;2022-12-05T09:05:16;100371.16;;;-0.47;90.25
2188;BME280;1100;52.014;8.540;2022-12-05T09:07:42;100377.31;;;-0.51;90.22
2188;BME280;1100;52.014;8.540;2022-12-05T09:10:08;100376.88;;;-0.53;90.34
2188;BME280;1100;52.014;8.540;2022-12-05T09:12:37;100383.84;;;-0.55;90.36
2188;BME280;1100;52.014;8.540;2022-12-05T09:15:04;100381.47;;;-0.57;90.47
2188;BME280;1100;52.014;8.540;2022-12-05T09:17:30;100377.50;;;-0.59;90.38
2188;BME280;1100;52.014;8.540;2022-12-05T09:19:55;100380.22;;;-0.59;90.35
2188;BME280;1100;52.014;8.540;2022-12-05T09:22:21;100383.31;;;-0.61;90.26
2188;BME280;1100;52.014;8.540;2022-12-05T09:24:47;100382.53;;;-0.61;90.20
2188;BME280;1100;52.014;8.540;2022-12-05T09:27:12;100385.97;;;-0.65;90.27
2188;BME280;1100;52.014;8.540;2022-12-05T09:29:38;100384.72;;;-0.67;90.20
2188;BME280;1100;52.014;8.540;2022-12-05T09:32:04;100383.50;;;-0.70;90.08
2188;BME280;1100;52.014;8.540;2022-12-05T09:34:29;100378.75;;;-0.73;90.23
2188;BME280;1100;52.014;8.540;2022-12-05T09:36:55;100383.00;;;-0.76;90.18
2188;BME280;1100;52.014;8.540;2022-12-05T09:39:22;100387.31;;;-0.74;90.16
2188;BME280;1100;52.014;8.540;2022-12-05T09:49:54;100384.47;;;-0.78;90.35
2188;BME280;1100;52.014;8.540;2022-12-05T09:52:28;100395.41;;;-0.78;90.13
2188;BME280;1100;52.014;8.540;2022-12-05T09:54:56;100383.59;;;-0.82;89.99
2188;BME280;1100;52.014;8.540;2022-12-05T09:57:34;100386.34;;;-0.82;90.09
2188;BME280;1100;52.014;8.540;2022-12-05T10:00:03;100389.88;;;-0.82;90.25
2188;BME280;1100;52.014;8.540;2022-12-05T10:02:55;100392.25;;;-0.80;90.32
2188;BME280;1100;52.014;8.540;2022-12-05T10:05:40;100385.63;;;-0.79;90.21
2188;BME280;1100;52.014;8.540;2022-12-05T10:08:18;100385.19;;;-0.81;90.15
2188;BME280;1100;52.014;8.540;2022-12-05T10:11:09;100382.03;;;-0.83;90.32
2188;BME280;1100;52.014;8.540;2022-12-05T10:16:43;100383.59;;;-0.82;90.29
2188;BME280;1100;52.014;8.540;2022-12-05T10:19:13;100379.72;;;-0.81;90.37
2188;BME280;1100;52.014;8.540;2022-12-05T10:21:58;100385.19;;;-0.81;90.27
2188;BME280;1100;52.014;8.540;2022-12-05T10:24:37;100376.56;;;-0.83;90.26
2188;BME280;1100;52.014;8.540;2022-12-05T10:27:07;100384.41;;;-0.82;90.29
2188;BME280;1100;52.014;8.540;2022-12-05T10:30:39;100376.22;;;-0.82;90.43
2188;BME280;1100;52.014;8.540;2022-12-05T10:32:45;100381.59;;;-0.85;90.06
2188;BME280;1100;52.014;8.540;2022-12-05T10:35:21;100383.97;;;-0.84;90.47
2188;BME280;1100;52.014;8.540;2022-12-05T10:37:58;100378.50;;;-0.84;90.45
2188;BME280;1100;52.014;8.540;2022-12-05T10:40:26;100381.34;;;-0.80;90.27
2188;BME280;1100;52.014;8.540;2022-12-05T10:42:57;100380.53;;;-0.81;90.47
2188;BME280;1100;52.014;8.540;2022-12-05T10:45:22;100373.13;;;-0.80;90.47
2188;BME280;1100;52.014;8.540;2022-12-05T10:47:52;100374.25;;;-0.81;90.20
2188;BME280;1100;52.014;8.540;2022-12-05T10:52:46;100373.19;;;-0.77;90.28
2188;BME280;1100;52.014;8.540;2022-12-05T10:55:15;100370.91;;;-0.74;90.48
2188;BME280;1100;52.014;8.540;2022-12-05T10:57:41;100373.28;;;-0.73;90.05
2188;BME280;1100;52.014;8.540;2022-12-05T11:00:13;100364.25;;;-0.77;90.25
2188;BME280;1100;52.014;8.540;2022-12-05T11:02:40;100368.09;;;-0.78;90.31
2188;BME280;1100;52.014;8.540;2022-12-05T11:05:06;100368.09;;;-0.78;90.43
2188;BME280;1100;52.014;8.540;2022-12-05T11:07:34;100373.56;;;-0.78;90.35
2188;BME280;1100;52.014;8.540;2022-12-05T11:10:02;100365.81;;;-0.76;90.12
2188;BME280;1100;52.014;8.540;2022-12-05T11:15:05;100362.81;;;-0.71;90.24
2188;BME280;1100;52.014;8.540;2022-12-05T11:17:37;100369.94;;;-0.66;90.19
2188;BME280;1100;52.014;8.540;2022-12-05T11:22:51;100357.97;;;-0.61;90.12
2188;BME280;1100;52.014;8.540;2022-12-05T11:25:36;100354.53;;;-0.58;89.98
2188;BME280;1100;52.014;8.540;2022-12-05T11:30:57;100347.19;;;-0.54;90.14
2188;BME280;1100;52.014;8.540;2022-12-05T11:33:24;100351.50;;;-0.53;90.01
2188;BME280;1100;52.014;8.540;2022-12-05T11:35:52;100353.09;;;-0.52;90.19
2188;BME280;1100;52.014;8.540;2022-12-05T11:38:21;100356.25;;;-0.50;89.92
2188;BME280;1100;52.014;8.540;2022-12-05T11:40:57;100359.06;;;-0.46;90.18
2188;BME280;1100;52.014;8.540;2022-12-05T12:05:07;100345.84;;;-0.44;90.37
2188;BME280;1100;52.014;8.540;2022-12-05T12:08:02;100343.75;;;-0.51;90.04
2188;BME280;1100;52.014;8.540;2022-12-05T12:10:42;100340.28;;;-0.48;90.39
2188;BME280;1100;52.014;8.540;2022-12-05T12:23:54;100350.25;;;-0.40;90.44
2188;BME280;1100;52.014;8.540;2022-12-05T12:32:07;100337.34;;;-0.39;90.60
2188;BME280;1100;52.014;8.540;2022-12-05T12:35:22;100336.94;;;-0.41;90.19
2188;BME280;1100;52.014;8.540;2022-12-05T12:46:42;100333.41;;;-0.42;90.62
2188;BME280;1100;52.014;8.540;2022-12-05T12:52:12;100329.97;;;-0.39;90.63
2188;BME280;1100;52.014;8.540;2022-12-05T12:54:56;100334.25;;;-0.38;90.35
2188;BME280;1100;52.014;8.540;2022-12-05T12:58:01;100331.53;;;-0.38;90.33
2188;BME280;1100;52.014;8.540;2022-12-05T13:05:51;100332.09;;;-0.48;90.78
2188;BME280;1100;52.014;8.540;2022-12-05T13:11:05;100320.03;;;-0.47;90.49
2188;BME280;1100;52.014;8.540;2022-12-05T13:13:35;100325.06;;;-0.49;90.41
2188;BME280;1100;52.014;8.540;2022-12-05T13:16:04;100320.03;;;-0.47;90.53
2188;BME280;1100;52.014;8.540;2022-12-05T13:18:32;100319.59;;;-0.49;90.63
2188;BME280;1100;52.014;8.540;2022-12-05T13:21:00;100318.00;;;-0.50;90.39
2188;BME280;1100;52.014;8.540;2022-12-05T13:23:33;100316.44;;;-0.51;90.38
2188;BME280;1100;52.014;8.540;2022-12-05T13:26:07;100320.31;;;-0.52;90.70
2188;BME280;1100;52.014;8.540;2022-12-05T13:28:37;100321.91;;;-0.51;90.45
2188;BME280;1100;52.014;8.540;2022-12-05T13:31:07;100323.47;;;-0.50;90.51
2188;BME280;1100;52.014;8.540;2022-12-05T13:33:45;100327.34;;;-0.51;90.36
2188;BME280;1100;52.014;8.540;2022-12-05T13:36:17;100330.09;;;-0.51;90.47
2188;BME280;1100;52.014;8.540;2022-12-05T13:39:04;100321.91;;;-0.51;90.54
2188;BME280;1100;52.014;8.540;2022-12-05T13:41:54;100328.56;;;-0.48;90.71
2188;BME280;1100;52.014;8.540;2022-12-05T13:44:42;100323.09;;;-0.48;90.74
2188;BME280;1100;52.014;8.540;2022-12-05T13:47:25;100330.19;;;-0.47;90.69
2188;BME280;1100;52.014;8.540;2022-12-05T13:50:02;100339.50;;;-0.48;90.72
2188;BME280;1100;52.014;8.540;2022-12-05T13:52:41;100339.84;;;-0.50;90.62
2188;BME280;1100;52.014;8.540;2022-12-05T13:55:22;100336.34;;;-0.51;90.56
2188;BME280;1100;52.014;8.540;2022-12-05T13:57:54;100338.72;;;-0.49;90.48
2188;BME280;1100;52.014;8.540;2022-12-05T14:00:26;100344.53;;;-0.51;90.79
2188;BME280;1100;52.014;8.540;2022-12-05T14:02:57;100340.56;;;-0.53;90.46
2188;BME280;1100;52.014;8.540;2022-12-05T14:07:56;100332.72;;;-0.55;90.55
2188;BME280;1100;52.014;8.540;2022-12-05T14:10:23;100335.81;;;-0.56;90.57
2188;BME280;1100;52.014;8.540;2022-12-05T14:15:39;100334.97;;;-0.60;90.60
2188;BME280;1100;52.014;8.540;2022-12-05T14:18:17;100341.22;;;-0.60;90.50
2188;BME280;1100;52.014;8.540;2022-12-05T14:24:12;100343.88;;;-0.64;90.55
2188;BME280;1100;52.014;8.540;2022-12-05T14:26:51;100337.91;;;-0.69;90.48
2188;BME280;1100;52.014;8.540;2022-12-05T14:29:52;100340.19;;;-0.71;90.62
2188;BME280;1100;52.014;8.540;2022-12-05T14:32:27;100346.44;;;-0.71;90.50
2188;BME280;1100;52.014;8.540;2022-12-05T14:35:13;100347.91;;;-0.73;90.63
2188;BME280;1100;52.014;8.540;2022-12-05T14:38:00;100335.53;;;-0.71;90.73
2188;BME280;1100;52.014;8.540;2022-12-05T14:40:32;100334.81;;;-0.68;90.69
2188;BME280;1100;52.014;8.540;2022-12-05T14:43:17;100340.69;;;-0.66;90.49
2188;BME280;1100;52.014;8.540;2022-12-05T14:48:32;100342.66;;;-0.66;90.76
2188;BME280;1100;52.014;8.540;2022-12-05T14:50:59;100342.72;;;-0.63;90.84
2188;BME280;1100;52.014;8.540;2022-12-05T14:58:31;100342.34;;;-0.61;90.46
2188;BME280;1100;52.014;8.540;2022-12-05T15:01:01;100347.81;;;-0.61;90.74
2188;BME280;1100;52.014;8.540;2022-12-05T15:03:36;100345.97;;;-0.57;90.80
2188;BME280;1100;52.014;8.540;2022-12-05T15:06:05;100353.81;;;-0.55;90.68
2188;BME280;1100;52.014;8.540;2022-12-05T15:08:44;100348.34;;;-0.55;90.64
2188;BME280;1100;52.014;8.540;2022-12-05T15:11:15;100345.16;;;-0.57;90.87
2188;BME280;1100;52.014;8.540;2022-12-05T15:13:54;100347.53;;;-0.56;90.61
2188;BME280;1100;52.014;8.540;2022-12-05T15:16:21;100344.44;;;-0.54;90.87
2188;BME280;1100;52.014;8.540;2022-12-05T15:18:49;100342.88;;;-0.55;90.94
2188;BME280;1100;52.014;8.540;2022-12-05T15:21:43;100356.94;;;-0.53;90.69
2188;BME280;1100;52.014;8.540;2022-12-05T15:24:14;100356.19;;;-0.54;90.71
2188;BME280;1100;52.014;8.540;2022-12-05T15:26:40;100369.13;;;-0.51;90.85
2188;BME280;1100;52.014;8.540;2022-12-05T15:34:48;100380.06;;;-0.51;90.67
2188;BME280;1100;52.014;8.540;2022-12-05T15:42:40;100380.91;;;-0.46;90.97
2188;BME280;1100;52.014;8.540;2022-12-05T15:47:40;100384.00;;;-0.48;90.79
2188;BME280;1100;52.014;8.540;2022-12-05T15:50:32;100382.44;;;-0.49;90.73